Latest Weather Observations for Mareeba

IDQ60801

Issued at 7:12 am EST Wednesday 23 October 2019 (issued every 10 minutes, with the page automatically refreshed every 10 minutes)

About weather observations | Map of weather stations | Latest weather observations for QLD | Other Formats
Station Details ID: 031210 Name: MAREEBA AIRPORT Lat: -17.07 Lon: 145.43 Height: 471.93 m
Data from the previous 72 hours. | See also: Recent months at Mareeba
Date/Time
EST
Temp
°C
App
Temp
°C
Dew
Point
°C
Rel
Hum
%
Delta-T
°C
Wind Press
QNH
hPa
Press
MSL
hPa
Rain since
9am
mm
Dir  Spd
km/h
Gust
km/h
Spd
kts
Gust
kts
23/07:00am 19.8 17.9 15.2 75 2.8 SSE 19 24 10 13 1019.0 1016.3 1.2
23/06:30am 18.9 17.1 15.6 81 2.0 SSE 19 24 10 13 1018.6 1015.9 1.2
23/06:00am 18.5 17.4 15.4 82 1.9 SSE 15 20 8 11 1018.4 1015.7 1.2
23/05:30am 18.4 17.7 15.3 82 1.9 SSE 13 19 7 10 1018.1 1015.4 1.2
23/05:00am 18.5 17.3 15.0 80 2.1 SSE 15 20 8 11 1017.9 1015.2 1.2
23/04:30am 18.8 18.4 15.1 79 2.2 SE 11 15 6 8 1017.6 1014.9 1.2
23/04:00am 19.1 18.3 15.0 77 2.4 ESE 13 22 7 12 1017.5 1014.8 1.2
23/03:30am 19.4 17.5 15.1 76 2.6 SE 19 32 10 17 1017.2 1014.6 1.2
23/03:00am 19.6 16.9 14.6 73 3.0 ESE 22 30 12 16 1017.1 1014.4 1.2
23/02:30am 19.8 16.7 14.4 71 3.2 ESE 24 33 13 18 1017.3 1014.7 1.2
23/02:00am 19.9 16.5 13.8 68 3.6 ESE 24 43 13 23 1017.6 1014.9 1.2
23/01:30am 19.4 17.1 14.6 74 2.9 SE 20 35 11 19 1018.0 1015.3 1.2
23/01:00am 19.0 17.0 15.5 80 2.1 SE 20 28 11 15 1018.3 1015.6 1.2
23/12:30am 19.2 17.3 15.7 80 2.1 SE 20 26 11 14 1018.9 1016.2 1.2
23/12:00am 19.6 18.0 15.9 79 2.2 SE 19 28 10 15 1019.1 1016.4 1.2
 
Date/Time
EST
Temp
°C
App
Temp
°C
Dew
Point
°C
Rel
Hum
%
Delta-T
°C
Wind Press
QNH
hPa
Press
MSL
hPa
Rain since
9am
mm
Dir  Spd
km/h
Gust
km/h
Spd
kts
Gust
kts
22/11:30pm 19.9 17.8 16.2 79 2.3 SE 22 33 12 18 1019.3 1016.7 1.2
22/11:00pm 20.0 18.9 17.2 84 1.7 SE 19 24 10 13 1019.6 1017.0 1.2
22/10:30pm 20.1 21.2 18.1 88 1.3 ESE 9 15 5 8 1019.8 1017.1 1.2
22/10:00pm 19.7 20.2 18.4 92 0.8 ESE 13 24 7 13 1019.8 1017.1 1.2
22/09:30pm 19.7 21.4 18.5 93 0.8 ESE 7 9 4 5 1019.5 1016.9 1.0
22/09:00pm 19.6 22.2 18.3 92 0.8 SE 2 9 1 5 1019.3 1016.7 1.0
22/08:30pm 19.7 21.2 18.0 90 1.1 SE 7 9 4 5 1019.4 1016.8 0.8
22/08:00pm 20.6 20.5 17.0 80 2.2 SE 13 17 7 9 1019.1 1016.4 0.2
22/07:30pm 20.9 21.2 16.9 78 2.5 SSE 11 19 6 10 1018.9 1016.2 0.2
22/07:00pm 21.1 21.0 16.9 77 2.6 SSE 13 17 7 9 1018.7 1016.0 0.2
22/06:30pm 21.2 19.6 16.6 75 2.8 SSE 20 26 11 14 1018.4 1015.7 0.2
22/06:00pm 22.0 20.7 15.8 68 3.8 SE 17 22 9 12 1017.9 1015.2 0.2
22/05:30pm 23.1 20.0 15.7 63 4.5 SE 26 35 14 19 1017.6 1014.9 0.2
22/05:00pm 24.0 22.3 14.7 56 5.6 ESE 17 22 9 12 1016.9 1014.2 0.2
22/04:30pm 24.6 22.6 15.0 55 5.9 ESE 19 28 10 15 1016.7 1014.0 0.2
22/04:00pm 24.7 22.7 15.6 57 5.6 SE 20 26 11 14 1016.7 1014.0 0.2
22/03:30pm 23.8 22.1 15.8 61 4.9 SE 19 26 10 14 1016.8 1014.1 0.2
22/03:00pm 23.5 19.9 16.3 64 4.5 SE 30 41 16 22 1016.9 1014.2 0.2
22/02:30pm 24.7 21.4 15.1 55 5.9 SE 26 35 14 19 1016.9 1014.2 0.2
22/02:00pm 24.9 21.9 14.7 53 6.2 SE 24 33 13 18 1016.8 1014.1 0.2
22/01:30pm 25.5 22.0 13.4 47 7.2 ESE 24 39 13 21 1017.1 1014.4 0.2
22/01:00pm 26.0 22.6 13.8 47 7.3 ESE 24 39 13 21 1017.5 1014.8 0.2
22/12:30pm 24.8 21.7 14.6 53 6.2 SSE 24 35 13 19 1018.0 1015.3 0.2
22/12:00pm 26.0 22.0 14.1 47 7.2 ESE 28 41 15 22 1018.4 1015.7 0.2
22/11:30am 25.5 22.2 14.9 52 6.5 ESE 26 41 14 22 1019.0 1016.3 0.0
22/11:00am 22.8 21.2 16.1 66 4.1 ESE 19 26 10 14 1019.4 1016.8 0.0
22/10:30am 20.8 18.9 16.8 78 2.5 SE 22 32 12 17 1020.0 1017.3 0.0
22/10:00am 21.3 19.6 17.1 77 2.6 SE 22 35 12 19 1020.1 1017.4 0.0
22/09:30am 23.2 22.4 18.5 75 3.0 SE 20 30 11 16 1020.0 1017.3 0.0
22/09:00am 21.3 21.7 18.9 86 1.5 SE 15 17 8 9 1020.0 1017.3 2.2
22/08:30am 19.5 18.0 17.8 90 1.1 SSE 22 32 12 17 1020.0 1017.3 2.2
22/08:00am 20.9 23.0 19.0 89 1.2 SE 6 9 3 5 1019.5 1016.9 1.8
22/07:30am 20.3 22.4 19.0 92 0.8 SE 6 9 3 5 1019.0 1016.3 1.8
22/07:00am 19.9 21.9 18.7 93 0.8 SE 6 9 3 5 1018.8 1016.1 1.8
22/06:30am 19.7 21.9 18.4 92 0.8 ESE 4 9 2 5 1018.5 1015.8 1.8
22/06:00am 19.7 19.8 18.4 92 0.8 SSE 15 17 8 9 1018.1 1015.4 1.6
22/05:30am 19.6 20.7 18.1 91 0.9 SE 9 13 5 7 1017.8 1015.1 1.6
22/05:00am 19.7 20.0 18.0 90 1.1 E 13 22 7 12 1017.7 1015.0 1.2
22/04:30am 20.6 21.0 17.2 81 2.1 SSE 11 17 6 9 1017.0 1014.3 0.0
22/04:00am 20.5 20.1 17.1 81 2.1 SSE 15 20 8 11 1016.8 1014.1 0.0
22/03:30am 20.7 20.5 17.7 83 1.9 SE 15 20 8 11 1016.7 1014.0 0.0
22/03:00am 19.3 20.7 17.3 88 1.2 NW 6 9 3 5 1016.7 1014.0 0.0
22/02:30am 20.9 21.3 17.3 80 2.3 SE 11 15 6 8 1017.0 1014.3 0.0
22/02:00am 19.5 22.2 17.8 90 1.1 CALM 0 2 0 1 1017.3 1014.7 0.0
22/01:30am 20.1 22.6 17.3 84 1.7 CALM 0 7 0 4 1017.8 1015.1 0.0
22/01:00am 20.5 21.2 17.1 81 2.1 NNE 9 17 5 9 1018.1 1015.4 0.0
22/12:30am 21.6 21.1 16.8 74 3.0 SE 15 20 8 11 1018.3 1015.6 0.0
22/12:00am 21.8 21.6 16.7 73 3.2 ESE 13 20 7 11 1018.7 1016.0 0.0
 
Date/Time
EST
Temp
°C
App
Temp
°C
Dew
Point
°C
Rel
Hum
%
Delta-T
°C
Wind Press
QNH
hPa
Press
MSL
hPa
Rain since
9am
mm
Dir  Spd
km/h
Gust
km/h
Spd
kts
Gust
kts
21/11:30pm 21.9 21.3 16.6 72 3.3 ESE 15 22 8 12 1019.1 1016.4 0.0
21/11:00pm 21.3 21.6 16.9 76 2.7 ESE 11 15 6 8 1019.2 1016.6 0.0
21/10:30pm 21.4 21.2 16.8 75 2.9 SE 13 17 7 9 1019.2 1016.6 0.0
21/10:00pm 21.0 20.9 17.0 78 2.5 SE 13 17 7 9 1019.3 1016.7 0.0
21/09:30pm 21.3 23.8 17.3 78 2.5 CALM 0 0 0 0 1019.2 1016.6 0.0
21/09:00pm 21.0 23.1 17.2 79 2.4 ENE 2 9 1 5 1019.0 1016.3 0.0
21/08:30pm 21.8 21.3 17.0 74 3.0 ESE 15 20 8 11 1018.9 1016.2 0.0
21/08:00pm 22.0 20.7 17.2 74 3.0 SE 20 32 11 17 1018.7 1016.0 0.0
21/07:30pm 21.7 20.0 17.1 75 2.9 SE 22 30 12 16 1018.5 1015.8 0.0
21/07:00pm 22.1 22.0 17.0 73 3.2 SSE 13 17 7 9 1018.0 1015.3 0.0
21/06:30pm 22.2 21.2 17.6 75 2.9 SSE 19 22 10 12 1017.7 1015.0 0.0
21/06:00pm 24.4 22.6 15.6 58 5.4 ESE 19 26 10 14 1017.2 1014.6 0.0
21/05:30pm 24.6 22.8 15.5 57 5.6 E 19 26 10 14 1016.6 1013.9 0.0
21/05:00pm 26.0 24.4 16.0 54 6.2 ESE 19 28 10 15 1016.2 1013.5 0.0
21/04:30pm 25.7 24.2 16.3 56 5.9 ESE 19 26 10 14 1015.8 1013.1 0.0
21/04:00pm 24.7 22.3 16.4 60 5.2 SE 24 32 13 17 1015.8 1013.1 0.0
21/03:30pm 26.8 23.4 15.8 51 6.9 SE 28 37 15 20 1015.5 1012.8 0.0
21/03:00pm 27.8 24.7 15.5 47 7.7 ESE 26 35 14 19 1015.4 1012.7 0.0
21/02:30pm 29.2 26.9 15.7 44 8.5 SE 22 33 12 18 1015.3 1012.5 0.0
21/02:00pm 29.8 26.6 16.2 43 8.6 ESE 28 39 15 21 1015.5 1012.8 0.0
21/01:30pm 28.6 26.1 15.2 44 8.3 ESE 22 33 12 18 1015.5 1012.8 0.0
21/01:00pm 28.5 26.8 14.7 43 8.5 E 17 28 9 15 1015.9 1013.2 0.0
21/12:30pm 28.4 26.3 14.6 43 8.5 E 19 32 10 17 1016.4 1013.7 0.0
21/12:00pm 28.0 24.8 14.3 43 8.4 ESE 24 35 13 19 1016.8 1014.1 0.0
21/11:30am 28.4 26.5 14.3 42 8.6 E 17 28 9 15 1017.1 1014.4 0.0
21/11:00am 27.5 24.4 14.5 45 8.0 SE 24 33 13 18 1017.6 1014.9 0.0
21/10:30am 26.7 24.3 14.5 47 7.5 E 20 28 11 15 1018.0 1015.3 0.0
21/10:00am 27.1 25.8 15.8 50 7.0 ESE 17 26 9 14 1018.2 1015.5 0.0
21/09:30am 25.3 23.9 15.6 55 6.0 ESE 17 24 9 13 1018.3 1015.6 0.0
21/09:00am 24.9 23.8 16.3 59 5.4 SE 17 24 9 13 1018.3 1015.6 0.0
21/08:30am 24.2 24.3 16.5 62 4.8 NNE 11 15 6 8 1018.3 1015.6 0.0
21/08:00am 23.3 22.7 16.6 66 4.2 SE 15 22 8 12 1018.0 1015.3 0.0
21/07:30am 21.5 22.8 17.1 76 2.7 ESE 6 9 3 5 1017.9 1015.2 0.0
21/07:00am 19.5 20.4 16.5 83 1.8 E 7 11 4 6 1017.5 1014.8 0.0
21/06:30am 19.0 20.9 16.8 87 1.4 ESE 2 6 1 3 1017.1 1014.4 0.0
21/06:00am 18.7 19.3 16.7 88 1.2 SSE 9 15 5 8 1016.6 1013.9 0.0
21/05:30am 18.0 20.1 16.2 89 1.1 CALM 0 9 0 5 1016.4 1013.7 0.0
21/05:00am 18.7 18.9 16.7 88 1.2 SSE 11 15 6 8 1016.1 1013.4 0.0
21/04:30am 18.0 18.9 16.7 92 0.8 SE 7 13 4 7 1015.9 1013.2 0.0
21/04:00am 17.1 18.8 15.1 88 1.2 CALM 0 0 0 0 1015.8 1013.1 0.0
21/03:30am 17.7 18.1 15.3 86 1.4 SE 7 9 4 5 1015.8 1013.1 0.0
21/03:00am 18.1 18.7 15.7 86 1.4 SE 7 9 4 5 1015.9 1013.2 0.0
21/02:30am 18.0 17.8 15.8 87 1.3 SE 11 17 6 9 1016.0 1013.3 0.0
21/02:00am 17.8 17.9 15.4 86 1.4 SE 9 13 5 7 1016.2 1013.5 0.0
21/01:30am 17.0 16.0 14.5 85 1.5 SSE 13 17 7 9 1016.5 1013.8 0.0
21/01:00am 16.0 16.8 12.6 80 1.9 CALM 0 0 0 0 1016.8 1014.1 0.0
21/12:30am 16.0 16.7 12.2 78 2.1 CALM 0 0 0 0 1017.0 1014.3 0.0
21/12:00am 17.2 17.9 12.3 73 2.8 CALM 0 0 0 0 1017.1 1014.4 0.0
 
Date/Time
EST
Temp
°C
App
Temp
°C
Dew
Point
°C
Rel
Hum
%
Delta-T
°C
Wind Press
QNH
hPa
Press
MSL
hPa
Rain since
9am
mm
Dir  Spd
km/h
Gust
km/h
Spd
kts
Gust
kts
20/11:30pm 17.8 18.8 13.1 74 2.7 CALM 0 7 0 4 1017.3 1014.7 0.0
20/11:00pm 18.7 20.0 17.5 93 0.7 N 7 9 4 5 1017.5 1014.8 0.0
20/10:30pm 18.3 20.5 16.6 90 1.0 CALM 0 0 0 0 1017.3 1014.7 0.0
20/10:00pm 18.8 21.1 16.8 88 1.2 CALM 0 0 0 0 1017.2 1014.6 0.0
20/09:30pm 19.4 21.5 17.2 87 1.4 WNW 2 7 1 4 1017.0 1014.3 0.0
20/09:00pm 19.9 21.1 17.3 85 1.6 WNW 7 9 4 5 1016.7 1014.0 0.0
20/08:30pm 20.8 21.6 17.2 80 2.2 NW 9 11 5 6 1016.5 1013.8 0.0
20/08:00pm 21.5 22.5 15.3 68 3.8 WNW 4 11 2 6 1016.2 1013.5 0.0
20/07:30pm 22.2 22.5 15.1 64 4.3 NW 7 13 4 7 1015.8 1013.1 0.0
20/07:00pm 23.9 23.8 14.9 57 5.5 W 9 13 5 7 1015.3 1012.5 0.0
20/06:30pm 25.2 25.7 14.0 49 6.8 NNE 4 11 2 6 1014.8 1012.1 0.0
20/06:00pm 26.5 25.7 13.9 45 7.6 NNE 11 15 6 8 1014.2 1011.5 0.0
20/05:30pm 28.1 26.6 13.2 39 9.0 NNE 13 20 7 11 1013.8 1011.1 0.0
20/05:00pm 31.0 28.6 11.4 30 11.6 E 15 19 8 10 1013.4 1010.6 0.0
20/04:30pm 32.2 28.7 10.3 26 12.8 ESE 19 28 10 15 1012.8 1010.1 0.0
20/04:00pm 32.8 28.5 5.4 18 14.9 SSE 17 26 9 14 1012.6 1009.9 0.0
20/03:30pm 33.8 28.1 0.5 12 16.8 SE 20 33 11 18 1012.7 1010.0 0.0
20/03:00pm 33.3 26.6 -1.1 11 16.9 SE 24 41 13 22 1013.1 1010.3 0.0
20/02:30pm 33.8 27.0 -2.0 10 17.3 SE 24 32 13 17 1013.5 1010.8 0.0
20/02:00pm 33.4 25.8 -2.3 10 17.2 SE 28 46 15 25 1013.9 1011.2 0.0
20/01:30pm 34.7 27.6 -1.4 10 17.8 SSE 26 41 14 22 1014.4 1011.7 0.0
20/01:00pm 34.1 25.6 -3.2 9 17.8 SSE 32 46 17 25 1014.7 1012.0 0.0
20/12:32pm 33.1 23.8 -5.5 8 17.6 SE 35 54 19 29 1015.3 1012.5 0.0
20/12:30pm 33.0 22.9 -5.6 8 17.5 SE 39 54 21 29 1015.3 1012.5 0.0
20/12:20pm 33.5 24.0 -7.0 7 18.0 SSE 35 59 19 32 1015.4 1012.7 0.0
20/12:00pm 33.4 23.4 -5.3 8 17.7 SE 39 54 21 29 1015.8 1013.1 0.0
20/11:41am 33.4 23.7 -5.3 8 17.7 SE 37 56 20 30 1016.2 1013.5 0.0
20/11:30am 33.4 22.4 -7.0 7 18.0 SE 43 54 23 29 1016.4 1013.7 0.0
20/11:21am 33.0 23.5 -7.3 7 17.8 SE 35 54 19 29 1016.5 1013.8 0.0
20/11:00am 33.0 23.9 -9.3 6 18.0 SE 32 44 17 24 1016.8 1014.1 0.0
20/10:30am 31.8 23.9 -8.2 7 17.2 SE 26 41 14 22 1017.2 1014.6 0.0
20/10:00am 31.2 24.0 -5.4 9 16.4 SE 24 35 13 19 1017.8 1015.1 0.0
20/09:30am 30.1 24.8 3.2 18 13.9 SSE 20 32 11 17 1018.2 1015.5 0.0
20/09:00am 28.5 23.3 5.4 23 12.2 SE 22 33 12 18 1018.3 1015.6 0.0
20/08:30am 24.9 25.8 16.6 60 5.2 NNE 7 9 4 5 1018.4 1015.7 0.0
20/08:00am 21.9 22.6 17.1 74 3.0 NNE 9 13 5 7 1018.4 1015.7 0.0
20/07:30am 20.6 22.4 16.4 77 2.6 N 2 6 1 3 1018.2 1015.5 0.0

Other formats

Comma delimited format used in spreadsheet applications
http://www.bom.gov.au/fwo/IDQ60801/IDQ60801.95286.axf

JavaScript Object Notation format (JSON) in row-major order
http://www.bom.gov.au/fwo/IDQ60801/IDQ60801.95286.json

Data quality

Most of these data are generated automatically and are frequently updated. Quality checks on data are not normally performed. It is possible for incorrect values to appear. Refer to information at About Latest Weather Observations and please check the disclaimer before using these data.